FNUE

Luena Airport

Luena, Angola
METAR FNUE 231600Z 36005KT 9999 SCT030 25/18 Q1012
Observed Flight Rules
Jan-23 @ 16:00 UTC (7 hours ago) Visual Flight Rules
Wind Visibility Clouds
360° at 5 knots 10,000+ meters
  • Scattered at 3,000' AGL
Temperatures Readings
Current 25°C / 77°F
Dewpoint 18°C / 64°F
Humidity 65%
Altimeter 29.88" Hg
Pressure 1012 hPa
Elevation 1329
METAR FNUE 231600Z 36005KT 9999 SCT030 25/18 Q1012
Observed Flight Rules
Jan-23 @ 16:00 UTC
(7 hours ago)
VFR
Wind Visibility
360° at 5 knots 10,000+ meters
Clouds
  • Scattered at 3,000' AGL
Temperature Dewpoint
25°C / 77°F 18°C / 64°F
Humidity Altimeter Pressure
65% 29.88" Hg 1012 hPa